createdAt,value
2022-08-16T00:00:38.374Z,10.15
2022-08-16T00:05:48.591Z,10.05
2022-08-16T00:10:53.412Z,10.77
2022-08-16T00:15:57.869Z,10.80
2022-08-16T00:21:01.081Z,12.40
2022-08-16T00:26:35.345Z,12.07
2022-08-16T00:31:59.352Z,14.15
2022-08-16T00:36:56.278Z,11.02
2022-08-16T00:42:01.661Z,10.90
2022-08-16T00:47:11.113Z,11.85
2022-08-16T00:52:29.777Z,11.20
2022-08-16T00:57:58.302Z,11.73
2022-08-16T01:03:00.915Z,12.95
2022-08-16T01:08:35.026Z,12.25
2022-08-16T01:13:33.954Z,12.27
2022-08-16T01:18:45.273Z,13.50
2022-08-16T01:23:58.214Z,12.63
2022-08-16T01:29:09.911Z,11.85
2022-08-16T01:34:25.333Z,11.80
2022-08-16T01:39:35.458Z,11.43
2022-08-16T01:44:42.402Z,12.75
2022-08-16T01:50:42.483Z,14.27
2022-08-16T01:55:12.177Z,13.70
2022-08-16T02:00:19.949Z,13.48
2022-08-16T02:05:23.817Z,13.93
2022-08-16T02:10:28.850Z,13.48
2022-08-16T02:15:38.738Z,13.98
2022-08-16T02:20:53.514Z,14.35
2022-08-16T02:25:59.551Z,14.82
2022-08-16T02:31:07.547Z,13.88
2022-08-16T02:36:48.181Z,14.25
2022-08-16T02:41:43.026Z,14.68
2022-08-16T02:46:49.945Z,15.40
2022-08-16T02:51:54.711Z,16.00
2022-08-16T02:56:59.440Z,15.60
2022-08-16T03:02:08.837Z,16.77
2022-08-16T03:07:14.521Z,15.32
2022-08-16T03:12:30.152Z,15.48
2022-08-16T03:17:35.248Z,16.02
2022-08-16T03:22:39.324Z,17.42
2022-08-16T03:27:52.802Z,17.35
2022-08-16T03:32:57.540Z,18.05
2022-08-16T03:38:32.821Z,17.77
2022-08-16T03:43:51.085Z,20.70
2022-08-16T03:48:57.593Z,17.58
2022-08-16T03:54:01.705Z,18.10
2022-08-16T03:59:09.009Z,16.98
2022-08-16T04:04:25.156Z,19.92
2022-08-16T04:09:38.239Z,16.27
2022-08-16T04:14:46.863Z,14.48
2022-08-16T04:19:54.891Z,17.08
2022-08-16T04:25:02.262Z,16.75
2022-08-16T04:30:32.469Z,16.52
2022-08-16T04:35:39.546Z,16.77
2022-08-16T04:40:44.770Z,17.60
2022-08-16T04:46:00.190Z,16.85
2022-08-16T04:51:07.972Z,16.35
2022-08-16T04:56:22.092Z,16.60
2022-08-16T05:01:56.093Z,16.88
2022-08-16T05:06:53.317Z,17.98
2022-08-16T05:12:04.532Z,17.08
2022-08-16T05:17:10.371Z,16.52
2022-08-16T05:22:18.316Z,19.45
2022-08-16T05:27:27.788Z,20.48
2022-08-16T05:32:36.607Z,22.10
2022-08-16T05:37:50.636Z,20.85
2022-08-16T05:42:55.643Z,20.30
2022-08-16T05:48:02.596Z,20.77
2022-08-16T05:53:17.443Z,20.80
2022-08-16T05:58:38.354Z,22.65
2022-08-16T06:03:44.416Z,20.48
2022-08-16T06:08:54.677Z,23.58
2022-08-16T06:13:58.569Z,23.42
2022-08-16T06:19:13.250Z,25.30
2022-08-16T06:24:53.621Z,25.65
2022-08-16T06:29:49.981Z,29.10
2022-08-16T06:35:02.270Z,25.52
2022-08-16T06:40:12.924Z,26.92
2022-08-16T06:45:24.250Z,31.05
2022-08-16T06:50:50.280Z,30.58
2022-08-16T06:55:57.238Z,27.50
2022-08-16T07:01:01.277Z,30.42
2022-08-16T07:06:08.778Z,29.20
2022-08-16T07:11:20.791Z,30.48
2022-08-16T07:16:45.209Z,29.52
2022-08-16T07:21:59.104Z,28.42
2022-08-16T07:27:08.517Z,29.65
2022-08-16T07:32:13.347Z,28.33
2022-08-16T07:37:18.549Z,27.10
2022-08-16T07:42:49.265Z,28.80
2022-08-16T07:47:53.516Z,28.67
2022-08-16T07:53:02.004Z,27.38
2022-08-16T07:58:06.916Z,27.75
2022-08-16T08:03:22.460Z,27.60
2022-08-16T08:08:51.701Z,28.30
2022-08-16T08:14:03.091Z,28.05
2022-08-16T08:19:12.363Z,26.33
2022-08-16T08:24:19.753Z,24.00
2022-08-16T08:29:24.774Z,25.02
2022-08-16T08:34:42.070Z,27.00
2022-08-16T08:39:54.655Z,28.50
2022-08-16T08:44:59.599Z,24.65
2022-08-16T08:50:05.186Z,24.60
2022-08-16T08:55:14.729Z,25.52
2022-08-16T09:00:26.845Z,24.13
2022-08-16T09:05:35.922Z,21.95
2022-08-16T09:10:44.639Z,21.88
2022-08-16T09:15:49.235Z,20.23
2022-08-16T09:20:59.550Z,20.58
2022-08-16T09:26:46.035Z,20.40
2022-08-16T09:31:30.738Z,19.92
2022-08-16T09:36:34.401Z,21.00
2022-08-16T09:41:38.923Z,18.70
2022-08-16T09:46:48.065Z,21.20
2022-08-16T09:51:55.612Z,19.15
2022-08-16T09:57:02.967Z,18.23
2022-08-16T10:02:25.965Z,20.70
2022-08-16T10:07:43.970Z,17.65
2022-08-16T10:13:07.970Z,18.08
2022-08-16T10:19:00.390Z,14.95
2022-08-16T10:23:36.736Z,17.17
2022-08-16T10:28:43.405Z,17.27
2022-08-16T10:33:47.152Z,16.20
2022-08-16T10:38:52.064Z,16.17
2022-08-16T10:43:56.741Z,16.92
2022-08-16T10:49:01.038Z,15.15
2022-08-16T10:54:28.807Z,16.23
2022-08-16T10:59:45.932Z,16.85
2022-08-16T11:05:06.246Z,12.25
2022-08-16T11:15:37.047Z,13.00
2022-08-16T11:20:48.599Z,13.88
2022-08-16T11:26:16.658Z,14.70
2022-08-16T11:31:16.946Z,12.77
2022-08-16T11:36:27.430Z,15.65
2022-08-16T11:41:33.451Z,13.70
2022-08-16T11:46:44.392Z,13.98
2022-08-16T11:51:50.111Z,17.73
2022-08-16T11:56:57.046Z,13.80
2022-08-16T12:02:11.570Z,12.27
2022-08-16T12:07:25.734Z,9.07
2022-08-16T12:12:28.879Z,15.77
2022-08-16T12:17:33.831Z,11.57
2022-08-16T12:22:37.392Z,10.52
2022-08-16T12:27:40.890Z,16.38
2022-08-16T12:32:46.118Z,15.05
2022-08-16T12:37:58.705Z,13.73
2022-08-16T12:43:05.334Z,12.57
2022-08-16T12:48:35.522Z,16.33
2022-08-16T12:53:40.160Z,11.30
2022-08-16T12:58:48.637Z,12.40
2022-08-16T13:04:11.365Z,14.98
2022-08-16T13:09:26.330Z,11.15
2022-08-16T13:14:35.277Z,8.52
2022-08-16T13:20:07.097Z,7.97
2022-08-16T13:25:06.306Z,5.35
2022-08-16T13:30:21.839Z,6.90
2022-08-16T13:35:35.422Z,8.23
2022-08-16T13:40:46.000Z,5.13
2022-08-16T13:45:50.458Z,6.40
2022-08-16T13:50:58.709Z,5.45
2022-08-16T13:56:06.977Z,5.10
2022-08-16T14:01:13.878Z,4.40
2022-08-16T14:06:18.821Z,5.13
2022-08-16T14:11:22.122Z,5.78
2022-08-16T14:16:33.540Z,4.32
2022-08-16T14:21:40.946Z,6.55
2022-08-16T14:26:46.492Z,6.18
2022-08-16T14:31:53.717Z,5.70
2022-08-16T14:37:00.717Z,6.03
2022-08-16T14:42:09.103Z,5.35
2022-08-16T14:47:15.128Z,3.40
2022-08-16T14:52:52.051Z,2.83
2022-08-16T14:57:46.436Z,2.90
2022-08-16T15:02:54.149Z,3.45
2022-08-16T15:08:01.058Z,6.57
2022-08-16T15:13:06.502Z,5.93
2022-08-16T15:18:14.609Z,4.03
2022-08-16T15:23:28.758Z,4.85
2022-08-16T15:28:33.712Z,5.40
2022-08-16T15:33:50.755Z,3.33
2022-08-16T15:39:06.774Z,3.22
2022-08-16T15:44:25.624Z,4.00
2022-08-16T15:49:37.195Z,6.25
2022-08-16T15:54:52.552Z,4.38
2022-08-16T16:00:04.918Z,7.28
2022-08-16T16:05:19.655Z,9.80
2022-08-16T16:10:29.927Z,6.10
2022-08-16T16:15:35.950Z,4.45
2022-08-16T16:20:43.667Z,5.60
2022-08-16T16:25:48.681Z,4.10
2022-08-16T16:30:56.931Z,4.50
2022-08-16T16:36:03.917Z,4.20
2022-08-16T16:41:11.496Z,4.95
2022-08-16T16:46:42.074Z,8.18
2022-08-16T16:51:44.753Z,3.90
2022-08-16T16:56:54.315Z,5.53
2022-08-16T17:02:01.436Z,4.97
2022-08-16T17:07:24.347Z,4.07
2022-08-16T17:12:47.231Z,12.00
2022-08-16T17:23:16.261Z,4.28
2022-08-16T17:28:58.482Z,3.58
2022-08-16T17:33:54.748Z,10.85
2022-08-16T17:39:00.093Z,14.50
2022-08-16T17:39:28.150Z,5.03
2022-08-16T17:44:05.746Z,19.05
2022-08-16T17:49:08.852Z,20.95
2022-08-16T17:54:20.285Z,18.95
2022-08-16T17:59:36.960Z,20.02
2022-08-16T18:04:49.318Z,23.63
2022-08-16T18:09:53.096Z,21.27
2022-08-16T18:15:00.170Z,21.27
2022-08-16T18:20:04.346Z,22.88
2022-08-16T18:25:07.991Z,23.65
2022-08-16T18:30:17.658Z,21.70
2022-08-16T18:35:21.751Z,21.10
2022-08-16T18:40:25.035Z,22.63
2022-08-16T18:45:35.614Z,23.58
2022-08-16T18:50:59.681Z,24.05
2022-08-16T18:56:05.159Z,25.42
2022-08-16T19:01:09.729Z,27.48
2022-08-16T19:06:15.215Z,25.23
2022-08-16T19:11:23.356Z,28.25
2022-08-16T19:16:27.741Z,27.60
2022-08-16T19:21:30.820Z,29.77
2022-08-16T19:26:33.953Z,29.50
2022-08-16T19:31:38.410Z,29.48
2022-08-16T19:36:41.428Z,29.70
2022-08-16T19:41:53.027Z,30.77
2022-08-16T19:47:00.755Z,28.83
2022-08-16T19:52:15.033Z,28.75
2022-08-16T19:57:18.425Z,26.83
2022-08-16T20:02:35.633Z,28.90
2022-08-16T20:07:39.563Z,26.50
2022-08-16T20:12:44.126Z,27.52
2022-08-16T20:18:21.266Z,28.20
2022-08-16T20:23:28.358Z,28.35
2022-08-16T20:28:52.086Z,28.85
2022-08-16T20:34:05.958Z,30.48
2022-08-16T20:39:15.257Z,29.67
2022-08-16T20:44:23.022Z,32.15
2022-08-16T20:49:35.574Z,31.63
2022-08-16T20:54:39.203Z,30.02
2022-08-16T20:59:45.605Z,27.73
2022-08-16T21:05:02.089Z,27.52
2022-08-16T21:10:14.624Z,26.95
2022-08-16T21:15:18.172Z,29.23
2022-08-16T21:20:25.405Z,30.25
2022-08-16T21:25:32.222Z,25.70
2022-08-16T21:30:35.829Z,26.27
2022-08-16T21:35:41.274Z,24.52
2022-08-16T21:40:44.556Z,24.73
2022-08-16T21:45:48.788Z,26.95
2022-08-16T21:51:02.446Z,24.02
2022-08-16T21:56:06.774Z,24.73
2022-08-16T22:01:13.638Z,25.23
2022-08-16T22:06:18.183Z,22.52
2022-08-16T22:11:23.224Z,26.42
2022-08-16T22:16:27.284Z,29.42
2022-08-16T22:21:32.869Z,28.95
2022-08-16T22:26:42.827Z,29.27
2022-08-16T22:31:45.942Z,31.52
2022-08-16T22:36:51.096Z,33.70
2022-08-16T22:41:54.590Z,30.88
2022-08-16T22:46:57.775Z,27.40
2022-08-16T22:52:07.281Z,32.25
2022-08-16T22:57:10.826Z,29.85
2022-08-16T23:02:14.942Z,31.55
2022-08-16T23:07:19.608Z,28.40
2022-08-16T23:12:29.195Z,32.78
2022-08-16T23:17:33.757Z,35.65
2022-08-16T23:23:20.983Z,34.55
2022-08-16T23:28:08.112Z,38.25
2022-08-16T23:33:13.494Z,31.73
2022-08-16T23:38:37.665Z,37.30
2022-08-16T23:43:43.553Z,36.17
2022-08-16T23:50:01.304Z,38.05
2022-08-16T23:54:11.844Z,38.28
2022-08-16T23:59:14.843Z,35.15
